createdAt,value
2022-08-24T00:00:01.815Z,19.6
2022-08-24T00:05:02.122Z,19.65
2022-08-24T00:10:02.013Z,19.66
2022-08-24T00:15:01.651Z,19.87
2022-08-24T00:20:01.803Z,20
2022-08-24T00:25:01.567Z,19.97
2022-08-24T00:30:01.306Z,19.88
2022-08-24T00:35:01.890Z,19.81
2022-08-24T00:40:01.470Z,19.69
2022-08-24T00:45:01.495Z,19.69
2022-08-24T00:50:01.624Z,19.61
2022-08-24T00:55:01.998Z,19.45
2022-08-24T01:00:01.685Z,19.15
2022-08-24T01:05:01.438Z,19.01
2022-08-24T01:10:01.897Z,18.81
2022-08-24T01:15:02.018Z,18.63
2022-08-24T01:20:02.159Z,18.42
2022-08-24T01:25:01.906Z,18.37
2022-08-24T01:30:01.995Z,18.27
2022-08-24T01:35:01.638Z,18.34
2022-08-24T01:40:01.538Z,18.46
2022-08-24T01:45:01.268Z,18.8
2022-08-24T01:50:02.111Z,18.77
2022-08-24T01:55:01.579Z,18.84
2022-08-24T02:00:01.648Z,18.71
2022-08-24T02:05:01.876Z,18.57
2022-08-24T02:10:01.763Z,18.49
2022-08-24T02:15:01.480Z,18.5
2022-08-24T02:20:01.907Z,18.33
2022-08-24T02:25:01.414Z,18.2
2022-08-24T02:30:01.280Z,18.11
2022-08-24T02:35:01.361Z,18.08
2022-08-24T02:40:01.727Z,18.02
2022-08-24T02:45:01.520Z,18.05
2022-08-24T02:50:01.772Z,18.04
2022-08-24T02:55:02.132Z,18
2022-08-24T03:00:01.167Z,17.88
2022-08-24T03:05:01.960Z,17.7
2022-08-24T03:10:02.111Z,17.58
2022-08-24T03:15:01.394Z,17.43
2022-08-24T03:20:01.528Z,17.34
2022-08-24T03:25:01.222Z,17.35
2022-08-24T03:30:01.307Z,17.4
2022-08-24T03:35:01.609Z,17.6
2022-08-24T03:40:02.025Z,17.61
2022-08-24T03:45:01.497Z,17.46
2022-08-24T03:50:01.459Z,17.31
2022-08-24T03:55:01.922Z,17.14
2022-08-24T04:00:01.637Z,16.96
2022-08-24T04:05:01.295Z,16.96
2022-08-24T04:10:01.997Z,16.89
2022-08-24T04:15:01.282Z,16.9
2022-08-24T04:20:01.637Z,16.74
2022-08-24T04:25:01.801Z,16.65
2022-08-24T04:30:01.378Z,17
2022-08-24T04:35:01.987Z,17.09
2022-08-24T04:40:01.798Z,17.14
2022-08-24T04:45:01.302Z,17.15
2022-08-24T04:50:01.711Z,17.18
2022-08-24T04:55:01.707Z,17.17
2022-08-24T05:00:01.347Z,17.14
2022-08-24T05:05:02.096Z,17.13
2022-08-24T05:10:01.232Z,17.13
2022-08-24T05:15:02.170Z,17.07
2022-08-24T05:20:01.569Z,17
2022-08-24T05:25:01.885Z,17
2022-08-24T05:30:01.324Z,16.99
2022-08-24T05:35:01.603Z,16.96
2022-08-24T05:40:01.652Z,16.9
2022-08-24T05:45:01.996Z,16.89
2022-08-24T05:50:01.530Z,16.92
2022-08-24T05:55:01.659Z,17
2022-08-24T06:00:03.483Z,17.13
2022-08-24T06:05:02.096Z,17.34
2022-08-24T06:10:20.293Z,17.56
2022-08-24T06:15:01.697Z,17.8
2022-08-24T06:20:02.180Z,18.21
2022-08-24T06:25:01.787Z,18.34
2022-08-24T06:30:02.225Z,18.79
2022-08-24T06:35:07.102Z,19.15
2022-08-24T06:40:02.289Z,19.48
2022-08-24T06:45:02.216Z,20.03
2022-08-24T06:50:02.054Z,20.87
2022-08-24T06:55:01.754Z,21.5
2022-08-24T07:00:01.933Z,22.03
2022-08-24T07:05:01.470Z,22.32
2022-08-24T07:10:01.368Z,22.77
2022-08-24T07:15:02.041Z,23.18
2022-08-24T07:20:01.341Z,23.02
2022-08-24T07:25:02.566Z,23.3
2022-08-24T07:30:25.296Z,23.45
2022-08-24T07:35:17.072Z,23.97
2022-08-24T07:40:01.776Z,24.38
2022-08-24T07:45:01.709Z,24.94
2022-08-24T07:50:06.906Z,25.4
2022-08-24T07:55:01.419Z,25.62
2022-08-24T08:00:01.513Z,25.51
2022-08-24T08:05:07.550Z,26.21
2022-08-24T08:10:02.365Z,26.7
2022-08-24T08:15:01.792Z,26.77
2022-08-24T08:20:02.008Z,26.85
2022-08-24T08:25:02.124Z,26.99
2022-08-24T08:30:01.673Z,27.76
2022-08-24T08:35:02.527Z,27.83
2022-08-24T08:40:01.596Z,27.97
2022-08-24T08:45:02.011Z,27.98
2022-08-24T08:50:02.405Z,28.27
2022-08-24T08:55:01.730Z,28.21
2022-08-24T09:00:02.928Z,27.61
2022-08-24T09:05:01.321Z,28.19
2022-08-24T09:10:01.356Z,28.01
2022-08-24T09:15:01.554Z,28.32
2022-08-24T09:20:01.799Z,28.2
2022-08-24T09:25:02.380Z,27.72
2022-08-24T09:30:01.582Z,27.79
2022-08-24T09:35:02.236Z,28.19
2022-08-24T09:40:02.158Z,28.17
2022-08-24T09:45:02.276Z,28.54
2022-08-24T09:50:02.093Z,28.97
2022-08-24T09:55:01.290Z,28.75
2022-08-24T10:00:01.417Z,28.63
2022-08-24T10:05:01.920Z,28.85
2022-08-24T10:10:02.105Z,29.19
2022-08-24T10:15:01.618Z,29.05
2022-08-24T10:20:01.286Z,29.02
2022-08-24T10:25:02.027Z,29.34
2022-08-24T10:30:01.265Z,29.43
2022-08-24T10:35:01.764Z,29.8
2022-08-24T10:40:02.851Z,29.45
2022-08-24T10:45:01.777Z,29.2
2022-08-24T10:50:01.624Z,29.2
2022-08-24T10:55:01.273Z,29.06
2022-08-24T11:00:01.752Z,29.3
2022-08-24T11:05:01.744Z,29.59
2022-08-24T11:10:01.900Z,29.93
2022-08-24T11:15:01.386Z,29.73
2022-08-24T11:20:01.528Z,29.71
2022-08-24T11:25:02.054Z,29.95
2022-08-24T11:30:01.674Z,30.07
2022-08-24T11:35:01.698Z,30.36
2022-08-24T11:40:01.897Z,30.5
2022-08-24T11:45:01.570Z,30.51
2022-08-24T11:50:01.681Z,30.78
2022-08-24T11:55:02.299Z,30.68
2022-08-24T12:00:01.847Z,30.8
2022-08-24T12:05:01.414Z,30.76
2022-08-24T12:10:02.064Z,30.68
2022-08-24T12:15:01.562Z,30.69
2022-08-24T12:20:01.400Z,30.39
2022-08-24T12:25:01.771Z,30.52
2022-08-24T12:30:01.758Z,30.61
2022-08-24T12:35:01.761Z,31.06
2022-08-24T12:40:01.471Z,30.86
2022-08-24T12:45:01.866Z,30.76
2022-08-24T12:50:01.532Z,30.78
2022-08-24T12:55:01.644Z,31.16
2022-08-24T13:00:01.562Z,31.18
2022-08-24T13:05:01.473Z,31.37
2022-08-24T13:10:01.212Z,31.66
2022-08-24T13:15:01.428Z,31.52
2022-08-24T13:20:01.744Z,31.33
2022-08-24T13:25:01.260Z,31.51
2022-08-24T13:30:01.280Z,31.4
2022-08-24T13:35:01.213Z,31.42
2022-08-24T13:40:01.637Z,31.22
2022-08-24T13:45:02.011Z,31.19
2022-08-24T13:50:01.400Z,31.48
2022-08-24T13:55:01.187Z,31.12
2022-08-24T14:00:01.967Z,30.92
2022-08-24T14:05:01.511Z,31.01
2022-08-24T14:10:01.431Z,31.27
2022-08-24T14:15:01.168Z,31.25
2022-08-24T14:20:01.551Z,31.36
2022-08-24T14:25:02.068Z,31.46
2022-08-24T14:30:01.390Z,31.22
2022-08-24T14:35:01.805Z,31.18
2022-08-24T14:40:01.698Z,31.41
2022-08-24T14:45:01.464Z,31.2
2022-08-24T14:50:01.483Z,31.24
2022-08-24T14:55:01.945Z,31.48
2022-08-24T15:00:01.413Z,31.64
2022-08-24T15:05:01.243Z,31.84
2022-08-24T15:10:01.337Z,32.03
2022-08-24T15:15:01.903Z,32.09
2022-08-24T15:20:01.648Z,31.84
2022-08-24T15:25:01.537Z,31.84
2022-08-24T15:30:02.109Z,31.98
2022-08-24T15:35:01.453Z,32.02
2022-08-24T15:40:01.852Z,32.03
2022-08-24T15:45:01.853Z,31.98
2022-08-24T15:50:01.829Z,31.73
2022-08-24T15:55:01.735Z,31.86
2022-08-24T16:00:01.724Z,31.85
2022-08-24T16:05:01.552Z,31.76
2022-08-24T16:10:01.777Z,31.79
2022-08-24T16:15:02.081Z,31.72
2022-08-24T16:20:01.160Z,31.52
2022-08-24T16:25:01.919Z,31.43
2022-08-24T16:30:01.843Z,31.52
2022-08-24T16:35:01.178Z,31.5
2022-08-24T16:40:02.202Z,31.3
2022-08-24T16:45:02.001Z,31.38
2022-08-24T16:50:01.687Z,31.36
2022-08-24T16:55:01.199Z,31.28
2022-08-24T17:00:02.044Z,31.28
2022-08-24T17:05:01.361Z,31.18
2022-08-24T17:10:01.806Z,30.96
2022-08-24T17:15:01.661Z,30.57
2022-08-24T17:20:01.538Z,30.67
2022-08-24T17:25:01.516Z,30.76
2022-08-24T17:30:01.671Z,30.82
2022-08-24T17:35:01.840Z,30.48
2022-08-24T17:40:01.943Z,30.56
2022-08-24T17:45:01.998Z,30.45
2022-08-24T17:50:06.142Z,30.1
2022-08-24T17:55:01.707Z,30.06
2022-08-24T18:00:01.227Z,29.9
2022-08-24T18:05:01.977Z,29.68
2022-08-24T18:10:01.965Z,29.48
2022-08-24T18:15:01.779Z,29.31
2022-08-24T18:20:01.184Z,28.97
2022-08-24T18:25:01.218Z,28.63
2022-08-24T18:30:03.129Z,28.38
2022-08-24T18:35:01.556Z,28.12
2022-08-24T18:40:01.841Z,27.87
2022-08-24T18:45:01.469Z,27.63
2022-08-24T18:50:01.263Z,27.51
2022-08-24T18:55:01.232Z,27.32
2022-08-24T19:00:01.920Z,26.98
2022-08-24T19:05:01.644Z,26.9
2022-08-24T19:10:01.256Z,26.84
2022-08-24T19:15:01.461Z,26.66
2022-08-24T19:20:01.256Z,26.42
2022-08-24T19:25:01.617Z,26.39
2022-08-24T19:30:01.773Z,26.34
2022-08-24T19:35:01.309Z,26.34
2022-08-24T19:40:01.431Z,26.23
2022-08-24T19:45:01.718Z,26.17
2022-08-24T19:50:01.729Z,26.12
2022-08-24T19:55:01.709Z,26.07
2022-08-24T20:00:01.696Z,25.94
2022-08-24T20:05:01.972Z,25.91
2022-08-24T20:10:12.454Z,25.89
2022-08-24T20:15:01.900Z,25.81
2022-08-24T20:20:02.195Z,25.73
2022-08-24T20:25:01.410Z,25.59
2022-08-24T20:30:02.039Z,25.45
2022-08-24T20:35:01.477Z,25.42
2022-08-24T20:40:01.386Z,25.44
2022-08-24T20:45:01.952Z,25.43
2022-08-24T20:50:01.830Z,25.51
2022-08-24T20:55:01.601Z,25.53
2022-08-24T21:00:01.834Z,25.6
2022-08-24T21:05:01.318Z,25.68
2022-08-24T21:10:01.515Z,25.65
2022-08-24T21:15:01.658Z,25.58
2022-08-24T21:20:02.014Z,25.61
2022-08-24T21:25:01.951Z,25.61
2022-08-24T21:30:02.203Z,25.5
2022-08-24T21:35:01.379Z,25.48
2022-08-24T21:40:01.611Z,25.35
2022-08-24T21:45:01.161Z,25.27
2022-08-24T21:50:01.625Z,25.15
2022-08-24T21:55:01.386Z,25
2022-08-24T22:00:01.820Z,24.88
2022-08-24T22:05:01.451Z,24.95
2022-08-24T22:10:01.204Z,24.95
2022-08-24T22:15:01.616Z,24.94
2022-08-24T22:20:02.026Z,24.86
2022-08-24T22:25:01.540Z,24.85
2022-08-24T22:30:01.209Z,24.93
2022-08-24T22:35:01.529Z,25.08
2022-08-24T22:40:01.632Z,25.17
2022-08-24T22:45:02.139Z,25.19
2022-08-24T22:50:01.637Z,25.13
2022-08-24T22:55:03.212Z,25.02
2022-08-24T23:00:02.129Z,24.93
2022-08-24T23:05:01.676Z,24.77
2022-08-24T23:10:01.671Z,24.76
2022-08-24T23:15:01.296Z,24.76
2022-08-24T23:20:01.982Z,24.55
2022-08-24T23:25:02.040Z,24.41
2022-08-24T23:30:01.341Z,24.3
2022-08-24T23:35:02.030Z,24.16
2022-08-24T23:40:02.193Z,23.87
2022-08-24T23:45:01.514Z,23.6
2022-08-24T23:50:01.330Z,23.35
2022-08-24T23:55:20.425Z,23.18
